Wendover Airport
KENV : now visible

Airfield :











YOU CAN JOIN US ON...

 
LOGIN :

Register | Disclaimer

   EN    FR    IT 

 









Legend :    VFR   Marginal VFR   IFR   Intensive IFR   Very Intensive IFR
Visi :
Ceiling :
>= 8 km
>= 3000ft
5 to 8 km
1000 to 3000 ft
1500m to 5 km
500 to 1000 ft
800 to 1500m
200 to 500 ft
< 800m
< 200 ft
Symbols :   Thunderstorms  Fog  Heavy snow  Heavy precipitations  Wind > 20 kt







- Airport Elevation : 4237 ft


KENV - Wendover

CURRENT METAR :
  • 230156Z AUTO 01005KT 10SM FEW110 10/02 A3003 RMK AO2 RAE06 SLP173 P0000 T01000017

EXPIRED METARs :
  • 230056Z AUTO 00000KT 10SM -RA SCT080 OVC100 12/02 A3002 RMK AO2 RAB56 SLP167 P0000 T01170022
  • 222356Z AUTO 31009KT 10SM OVC080 11/03 A3002 RMK AO2 WSHFT 2304 RAE02 SLP166 P0000 60001 T01060028 10133 20083 53008
  • 222329Z AUTO 30013G17KT 10SM FEW050 BKN085 OVC110 12/02 A3000 RMK AO2 WSHFT 2304 RAE02 P0000

TAF KENV
Valid from the 23 at 00:00 until the 24 at 00:00 UTC


222341Z 2300/2324 28010KT P6SM VCSH BKN040
FM230400 VRB04KT P6SM SCT060 BKN150
FM232000 10006KT P6SM VCSH SCT050 BKN120
KZLC FIR / North America



MET'MAP, your aeronautical weather chart ! - Copyright ORBIFLY December 2007 - Disclaimer

ORBIFLY MET'MAP TEAM :

Programming & Development : Alexandra Zaïnal
Concept & Development : Baudouin d'Aumeries
Co-Development & Prog : Marc-Olivier Méhu
Technical & hardware support : Manuel Goepfert

Contact : metmap@orbifly.com




SOURCES & CREDITS :

   NOAA       Earth
Advisory